createdAt,value
2018-01-13T00:00:04.127Z,6.09
2018-01-13T00:01:03.891Z,6.09
2018-01-13T00:02:04.205Z,6.09
2018-01-13T00:03:03.678Z,6.04
2018-01-13T00:04:03.933Z,6.08
2018-01-13T00:05:04.244Z,6.26
2018-01-13T00:06:03.964Z,6.33
2018-01-13T00:07:04.018Z,6.33
2018-01-13T00:08:04.291Z,6.41
2018-01-13T00:09:04.278Z,6.42
2018-01-13T00:10:04.029Z,6.38
2018-01-13T00:11:04.313Z,6.42
2018-01-13T00:12:04.070Z,6.46
2018-01-13T00:13:04.099Z,6.57
2018-01-13T00:14:04.088Z,6.57
2018-01-13T00:15:04.115Z,6.48
2018-01-13T00:16:04.127Z,6.51
2018-01-13T00:17:04.436Z,6.46
2018-01-13T00:18:04.400Z,6.44
2018-01-13T00:19:04.183Z,6.56
2018-01-13T00:20:03.934Z,6.52
2018-01-13T00:21:04.470Z,6.66
2018-01-13T00:22:04.211Z,6.67
2018-01-13T00:23:04.225Z,6.54
2018-01-13T00:24:04.238Z,6.6
2018-01-13T00:25:03.999Z,6.75
2018-01-13T00:26:04.528Z,6.67
2018-01-13T00:27:04.279Z,6.38
2018-01-13T00:28:04.300Z,6.38
2018-01-13T00:29:04.309Z,6.38
2018-01-13T00:30:04.326Z,6.2
2018-01-13T00:31:04.591Z,6.12
2018-01-13T00:32:04.155Z,6.3
2018-01-13T00:33:04.372Z,6.3
2018-01-13T00:34:04.136Z,6.39
2018-01-13T00:35:04.656Z,6.44
2018-01-13T00:36:04.423Z,6.35
2018-01-13T00:37:04.682Z,6.42
2018-01-13T00:38:04.695Z,6.35
2018-01-13T00:39:04.461Z,6.52
2018-01-13T00:40:04.752Z,6.57
2018-01-13T00:41:04.492Z,6.41
2018-01-13T00:42:04.768Z,6.39
2018-01-13T00:43:04.523Z,6.42
2018-01-13T00:44:04.790Z,6.48
2018-01-13T00:45:04.590Z,6.51
2018-01-13T00:46:04.836Z,6.57
2018-01-13T00:47:04.382Z,6.57
2018-01-13T00:48:04.596Z,6.59
2018-01-13T00:49:04.614Z,6.48
2018-01-13T00:50:04.627Z,6.49
2018-01-13T00:51:04.894Z,6.41
2018-01-13T00:52:04.658Z,6.44
2018-01-13T00:53:04.419Z,6.42
2018-01-13T00:54:04.700Z,6.48
2018-01-13T00:55:04.702Z,6.2
2018-01-13T00:56:04.727Z,6.12
2018-01-13T00:57:04.481Z,5.93
2018-01-13T00:58:05.020Z,5.94
2018-01-13T00:59:04.517Z,6.09
2018-01-13T01:00:04.778Z,6.11
2018-01-13T01:01:05.051Z,6.11
2018-01-13T01:02:04.608Z,6.12
2018-01-13T01:03:04.832Z,6.24
2018-01-13T01:04:04.837Z,6.08
2018-01-13T01:05:05.101Z,6.2
2018-01-13T01:06:04.885Z,6.22
2018-01-13T01:07:04.887Z,6.24
2018-01-13T01:08:04.897Z,6.22
2018-01-13T01:09:04.911Z,6.07
2018-01-13T01:10:04.932Z,6.33
2018-01-13T01:11:04.944Z,6.35
2018-01-13T01:12:04.956Z,6.39
2018-01-13T01:13:05.226Z,6.38
2018-01-13T01:14:05.001Z,6.36
2018-01-13T01:15:05.009Z,6.36
2018-01-13T01:16:05.022Z,6.3
2018-01-13T01:17:05.085Z,6.28
2018-01-13T01:18:05.049Z,6.19
2018-01-13T01:19:05.069Z,6.31
2018-01-13T01:20:05.342Z,6.33
2018-01-13T01:21:04.840Z,6.28
2018-01-13T01:22:05.108Z,6.26
2018-01-13T01:23:05.121Z,6.36
2018-01-13T01:24:05.389Z,6.38
2018-01-13T01:25:04.902Z,6.3
2018-01-13T01:26:04.918Z,6.3
2018-01-13T01:27:05.189Z,6.24
2018-01-13T01:28:04.949Z,6.36
2018-01-13T01:29:05.231Z,6.45
2018-01-13T01:30:05.487Z,6.45
2018-01-13T01:31:05.259Z,6.63
2018-01-13T01:32:05.311Z,6.64
2018-01-13T01:33:05.527Z,6.59
2018-01-13T01:34:05.036Z,6.52
2018-01-13T01:35:05.307Z,6.57
2018-01-13T01:36:05.319Z,6.49
2018-01-13T01:37:05.356Z,6.28
2018-01-13T01:38:05.605Z,6.11
2018-01-13T01:39:05.617Z,6.28
2018-01-13T01:40:05.390Z,6.2
2018-01-13T01:41:05.643Z,6.17
2018-01-13T01:42:05.656Z,6.11
2018-01-13T01:43:05.427Z,6.2
2018-01-13T01:44:05.189Z,6.07
2018-01-13T01:45:05.469Z,6.07
2018-01-13T01:46:05.476Z,6.08
2018-01-13T01:47:05.640Z,6.07
2018-01-13T01:48:05.249Z,6.11
2018-01-13T01:49:05.288Z,6.2
2018-01-13T01:50:05.289Z,6.31
2018-01-13T01:51:05.545Z,6.35
2018-01-13T01:52:05.561Z,6.26
2018-01-13T01:53:05.870Z,6.16
2018-01-13T01:54:05.592Z,6.24
2018-01-13T01:55:05.854Z,6.22
2018-01-13T01:56:05.622Z,6.28
2018-01-13T01:57:05.880Z,6.3
2018-01-13T01:58:05.396Z,6.45
2018-01-13T01:59:05.665Z,6.46
2018-01-13T02:00:05.682Z,6.35
2018-01-13T02:01:05.697Z,6.35
2018-01-13T02:02:05.511Z,6.12
2018-01-13T02:03:05.978Z,6.16
2018-01-13T02:04:05.993Z,6.09
2018-01-13T02:05:06.019Z,6.2
2018-01-13T02:06:05.521Z,6.26
2018-01-13T02:07:05.788Z,6.38
2018-01-13T02:08:05.801Z,6.41
2018-01-13T02:09:05.815Z,6.44
2018-01-13T02:10:05.581Z,6.45
2018-01-13T02:11:05.597Z,6.49
2018-01-13T02:12:05.862Z,6.46
2018-01-13T02:13:06.131Z,6.48
2018-01-13T02:14:06.149Z,6.33
2018-01-13T02:15:05.908Z,6.39
2018-01-13T02:16:06.192Z,6.2
2018-01-13T02:17:06.238Z,6.16
2018-01-13T02:18:06.211Z,6.05
2018-01-13T02:19:06.224Z,6.09
2018-01-13T02:20:05.983Z,6.08
2018-01-13T02:21:06.248Z,6.24
2018-01-13T02:22:06.364Z,6.27
2018-01-13T02:23:06.282Z,6.35
2018-01-13T02:24:05.792Z,6.38
2018-01-13T02:25:06.062Z,6.36
2018-01-13T02:26:06.072Z,6.11
2018-01-13T02:27:06.087Z,6.2
2018-01-13T02:28:06.099Z,6.2
2018-01-13T02:29:06.118Z,6.08
2018-01-13T02:30:06.394Z,6.07
2018-01-13T02:31:06.395Z,6.14
2018-01-13T02:32:06.459Z,6.24
2018-01-13T02:33:05.919Z,6.11
2018-01-13T02:34:06.441Z,6.12
2018-01-13T02:35:06.207Z,6.05
2018-01-13T02:36:06.473Z,5.99
2018-01-13T02:37:06.486Z,6.01
2018-01-13T02:38:06.505Z,6.05
2018-01-13T02:39:06.466Z,6.04
2018-01-13T02:40:06.029Z,5.94
2018-01-13T02:41:06.295Z,6.04
2018-01-13T02:42:06.565Z,6.11
2018-01-13T02:43:06.325Z,6.07
2018-01-13T02:44:06.689Z,6.09
2018-01-13T02:45:06.610Z,6.26
2018-01-13T02:46:06.368Z,6.28
2018-01-13T02:47:06.129Z,6.28
2018-01-13T02:48:06.649Z,6.35
2018-01-13T02:49:06.511Z,6.28
2018-01-13T02:50:06.678Z,6.33
2018-01-13T02:51:06.187Z,6.28
2018-01-13T02:52:06.714Z,6.16
2018-01-13T02:53:06.469Z,6.14
2018-01-13T02:54:06.735Z,6.09
2018-01-13T02:55:06.253Z,6.11
2018-01-13T02:56:06.769Z,6.14
2018-01-13T02:57:06.803Z,6.14
2018-01-13T02:58:06.291Z,6.41
2018-01-13T02:59:06.807Z,6.45
2018-01-13T03:00:06.577Z,6.46
2018-01-13T03:01:06.587Z,6.44
2018-01-13T03:02:06.606Z,6.49
2018-01-13T03:03:06.624Z,6.52
2018-01-13T03:04:06.682Z,6.46
2018-01-13T03:05:06.656Z,6.54
2018-01-13T03:06:06.408Z,6.57
2018-01-13T03:07:06.423Z,6.49
2018-01-13T03:08:06.696Z,6.3
2018-01-13T03:09:06.978Z,6.39
2018-01-13T03:10:06.723Z,6.41
2018-01-13T03:11:06.739Z,6.38
2018-01-13T03:12:06.751Z,6.57
2018-01-13T03:13:06.513Z,6.56
2018-01-13T03:14:06.778Z,6.56
2018-01-13T03:15:06.796Z,6.42
2018-01-13T03:16:07.068Z,6.48
2018-01-13T03:17:06.841Z,6.41
2018-01-13T03:18:06.840Z,6.44
2018-01-13T03:19:06.912Z,6.7
2018-01-13T03:20:07.168Z,6.74
2018-01-13T03:21:06.882Z,6.57
2018-01-13T03:22:06.904Z,6.62
2018-01-13T03:23:06.914Z,6.59
2018-01-13T03:24:06.930Z,6.41
2018-01-13T03:25:06.947Z,6.35
2018-01-13T03:26:06.963Z,6.33
2018-01-13T03:27:06.981Z,6.08
2018-01-13T03:28:07.248Z,6.28
2018-01-13T03:29:07.005Z,6.3
2018-01-13T03:30:07.288Z,6.36
2018-01-13T03:31:07.040Z,6.28
2018-01-13T03:32:07.301Z,6.28
2018-01-13T03:33:07.324Z,6.24
2018-01-13T03:34:07.130Z,6.2
2018-01-13T03:35:07.093Z,6.24
2018-01-13T03:36:07.109Z,6.14
2018-01-13T03:37:07.125Z,6.14
2018-01-13T03:38:06.894Z,6.08
2018-01-13T03:39:07.252Z,6.22
2018-01-13T03:40:07.166Z,6.2
2018-01-13T03:41:06.934Z,6.04
2018-01-13T03:42:07.196Z,5.86
2018-01-13T03:43:07.210Z,5.72
2018-01-13T03:44:06.978Z,5.86
2018-01-13T03:45:07.243Z,5.9
2018-01-13T03:46:07.262Z,5.99
2018-01-13T03:47:07.019Z,6.08
2018-01-13T03:48:07.535Z,6.16
2018-01-13T03:49:07.360Z,6.22
2018-01-13T03:50:07.313Z,6.28
2018-01-13T03:51:07.328Z,6.02
2018-01-13T03:52:07.345Z,5.83
2018-01-13T03:53:07.614Z,5.71
2018-01-13T03:54:07.371Z,5.64
2018-01-13T03:55:07.392Z,5.72
2018-01-13T03:56:07.428Z,5.91
2018-01-13T03:57:07.414Z,5.89
2018-01-13T03:58:07.431Z,5.68
2018-01-13T03:59:07.447Z,5.72
2018-01-13T04:00:07.459Z,5.68
2018-01-13T04:01:07.474Z,5.73
2018-01-13T04:02:07.239Z,5.84
2018-01-13T04:03:07.503Z,5.84
2018-01-13T04:04:08.926Z,5.98
2018-01-13T04:05:07.803Z,5.84
2018-01-13T04:06:07.799Z,5.8
2018-01-13T04:07:07.820Z,5.72
2018-01-13T04:08:07.389Z,5.68
2018-01-13T04:09:07.589Z,5.66
2018-01-13T04:10:07.609Z,5.68
2018-01-13T04:11:07.620Z,5.62
2018-01-13T04:12:07.631Z,5.73
2018-01-13T04:13:07.648Z,5.64
2018-01-13T04:14:07.410Z,5.68
2018-01-13T04:15:07.685Z,5.65
2018-01-13T04:16:07.949Z,5.87
2018-01-13T04:17:07.708Z,5.71
2018-01-13T04:18:07.727Z,5.91
2018-01-13T04:19:07.786Z,5.94
2018-01-13T04:20:07.750Z,5.84
2018-01-13T04:21:07.515Z,5.72
2018-01-13T04:22:08.032Z,5.66
2018-01-13T04:23:07.794Z,5.71
2018-01-13T04:24:08.065Z,5.69
2018-01-13T04:25:07.844Z,5.61
2018-01-13T04:26:08.086Z,5.59
2018-01-13T04:27:07.604Z,5.54
2018-01-13T04:28:08.128Z,5.5
2018-01-13T04:29:07.883Z,5.72
2018-01-13T04:30:07.896Z,5.72
2018-01-13T04:31:07.658Z,5.61
2018-01-13T04:32:07.674Z,5.68
2018-01-13T04:33:07.936Z,5.71
2018-01-13T04:34:08.214Z,5.91
2018-01-13T04:35:07.975Z,5.82
2018-01-13T04:36:07.784Z,5.83
2018-01-13T04:37:07.998Z,5.86
2018-01-13T04:38:08.265Z,5.84
2018-01-13T04:39:07.776Z,5.93
2018-01-13T04:40:07.790Z,6.04
2018-01-13T04:41:07.903Z,6.09
2018-01-13T04:42:08.324Z,6.11
2018-01-13T04:43:08.086Z,5.98
2018-01-13T04:44:08.106Z,5.87
2018-01-13T04:45:08.116Z,6.04
2018-01-13T04:46:08.398Z,6.09
2018-01-13T04:47:08.398Z,6.05
2018-01-13T04:48:08.160Z,6.14
2018-01-13T04:49:08.430Z,5.87
2018-01-13T04:50:08.443Z,5.83
2018-01-13T04:51:08.266Z,5.97
2018-01-13T04:52:07.971Z,5.91
2018-01-13T04:53:08.233Z,5.8
2018-01-13T04:54:08.262Z,5.99
2018-01-13T04:55:08.010Z,6.08
2018-01-13T04:56:08.277Z,6.12
2018-01-13T04:57:08.541Z,6.09
2018-01-13T04:58:08.559Z,6.09
2018-01-13T04:59:08.322Z,5.98
2018-01-13T05:00:08.085Z,5.98
2018-01-13T05:01:08.609Z,6.04
2018-01-13T05:02:08.375Z,6.07
2018-01-13T05:03:08.383Z,6.08
2018-01-13T05:04:08.648Z,6.04
2018-01-13T05:05:08.409Z,6.09
2018-01-13T05:06:08.730Z,6.04
2018-01-13T05:07:08.449Z,6.04
2018-01-13T05:08:08.451Z,6.22
2018-01-13T05:09:08.465Z,6.24
2018-01-13T05:10:08.480Z,6.2
2018-01-13T05:11:08.748Z,6.05
2018-01-13T05:12:08.512Z,6.04
2018-01-13T05:13:08.524Z,6.11
2018-01-13T05:14:08.545Z,6.09
2018-01-13T05:15:08.816Z,6.04
2018-01-13T05:16:08.569Z,6.14
2018-01-13T05:17:08.591Z,6.02
2018-01-13T05:18:08.601Z,5.91
2018-01-13T05:19:08.869Z,6.01
2018-01-13T05:20:08.626Z,6.05
2018-01-13T05:21:08.695Z,6.19
2018-01-13T05:22:08.410Z,6.27
2018-01-13T05:23:08.929Z,6.38
2018-01-13T05:24:08.691Z,6.26
2018-01-13T05:25:08.703Z,6.45
2018-01-13T05:26:08.974Z,6.36
2018-01-13T05:27:08.750Z,6.42
2018-01-13T05:28:08.496Z,6.39
2018-01-13T05:29:08.763Z,6.41
2018-01-13T05:30:08.778Z,6.39
2018-01-13T05:31:09.043Z,6.35
2018-01-13T05:32:08.805Z,6.46
2018-01-13T05:33:08.825Z,6.46
2018-01-13T05:34:09.094Z,6.44
2018-01-13T05:35:09.104Z,6.54
2018-01-13T05:36:09.173Z,6.36
2018-01-13T05:37:08.635Z,6.35
2018-01-13T05:38:08.894Z,6.28
2018-01-13T05:39:08.919Z,6.27
2018-01-13T05:40:08.926Z,6.26
2018-01-13T05:41:08.939Z,6.05
2018-01-13T05:42:08.965Z,6.19
2018-01-13T05:43:09.222Z,6.22
2018-01-13T05:44:08.995Z,6.27
2018-01-13T05:45:09.248Z,6.22
2018-01-13T05:46:08.764Z,6.26
2018-01-13T05:47:08.778Z,6.22
2018-01-13T05:48:08.792Z,6.28
2018-01-13T05:49:09.310Z,6.27
2018-01-13T05:50:09.074Z,6.24
2018-01-13T05:51:09.137Z,6.11
2018-01-13T05:52:09.358Z,5.9
2018-01-13T05:53:09.122Z,6.05
2018-01-13T05:54:09.135Z,6.08
2018-01-13T05:55:09.402Z,6.14
2018-01-13T05:56:09.169Z,6.07
2018-01-13T05:57:09.431Z,6.04
2018-01-13T05:58:09.193Z,5.9
2018-01-13T05:59:08.956Z,6.02
2018-01-13T06:00:09.474Z,6.11
2018-01-13T06:01:09.237Z,6.04
2018-01-13T06:02:09.508Z,5.86
2018-01-13T06:03:09.016Z,5.68
2018-01-13T06:04:09.537Z,5.62
2018-01-13T06:05:09.548Z,5.54
2018-01-13T06:06:09.117Z,5.57
2018-01-13T06:07:09.326Z,5.61
2018-01-13T06:08:09.592Z,5.65
2018-01-13T06:09:09.106Z,5.64
2018-01-13T06:10:09.372Z,5.61
2018-01-13T06:11:09.636Z,5.62
2018-01-13T06:12:09.400Z,5.68
2018-01-13T06:13:09.663Z,5.61
2018-01-13T06:14:09.449Z,5.57
2018-01-13T06:15:09.443Z,5.56
2018-01-13T06:16:09.460Z,5.47
2018-01-13T06:17:09.476Z,5.47
2018-01-13T06:18:09.741Z,5.43
2018-01-13T06:19:09.757Z,5.33
2018-01-13T06:20:09.518Z,5.39
2018-01-13T06:21:09.581Z,5.48
2018-01-13T06:22:09.549Z,5.53
2018-01-13T06:23:09.824Z,5.43
2018-01-13T06:24:09.322Z,5.36
2018-01-13T06:25:09.592Z,5.51
2018-01-13T06:26:09.353Z,5.48
2018-01-13T06:27:09.616Z,5.61
2018-01-13T06:28:09.635Z,5.54
2018-01-13T06:29:09.898Z,5.44
2018-01-13T06:30:09.411Z,5.57
2018-01-13T06:31:09.425Z,5.54
2018-01-13T06:32:09.691Z,5.65
2018-01-13T06:33:09.959Z,5.64
2018-01-13T06:34:09.721Z,5.66
2018-01-13T06:35:09.735Z,5.72
2018-01-13T06:36:09.799Z,5.64
2018-01-13T06:37:09.763Z,5.61
2018-01-13T06:38:09.789Z,5.72
2018-01-13T06:39:10.044Z,5.71
2018-01-13T06:40:09.806Z,5.82
2018-01-13T06:41:09.817Z,5.56
2018-01-13T06:42:09.836Z,5.61
2018-01-13T06:43:10.103Z,5.53
2018-01-13T06:44:10.114Z,5.47
2018-01-13T06:45:10.131Z,5.64
2018-01-13T06:46:10.148Z,5.53
2018-01-13T06:47:09.913Z,5.47
2018-01-13T06:48:09.927Z,5.41
2018-01-13T06:49:09.684Z,5.57
2018-01-13T06:50:09.955Z,5.59
2018-01-13T06:51:10.214Z,5.59
2018-01-13T06:52:09.726Z,5.59
2018-01-13T06:53:09.997Z,5.46
2018-01-13T06:54:10.010Z,5.59
2018-01-13T06:55:10.025Z,5.46
2018-01-13T06:56:10.041Z,5.47
2018-01-13T06:57:09.800Z,5.38
2018-01-13T06:58:10.066Z,5.41
2018-01-13T06:59:10.084Z,5.39
2018-01-13T07:00:10.356Z,5.05
2018-01-13T07:01:10.382Z,5.14
2018-01-13T07:02:10.447Z,5.3
2018-01-13T07:03:10.137Z,5.43
2018-01-13T07:04:10.155Z,5.46
2018-01-13T07:05:09.914Z,5.47
2018-01-13T07:06:10.178Z,5.43
2018-01-13T07:07:09.941Z,5.47
2018-01-13T07:08:09.958Z,5.48
2018-01-13T07:09:10.222Z,5.46
2018-01-13T07:10:10.242Z,5.46
2018-01-13T07:11:10.012Z,5.44
2018-01-13T07:12:10.284Z,5.5
2018-01-13T07:13:10.538Z,5.62
2018-01-13T07:14:10.296Z,5.51
2018-01-13T07:15:10.056Z,5.48
2018-01-13T07:16:10.379Z,5.28
2018-01-13T07:17:10.336Z,5.33
2018-01-13T07:18:10.358Z,5.3
2018-01-13T07:19:10.369Z,5.43
2018-01-13T07:20:10.383Z,5.39
2018-01-13T07:21:10.397Z,5.44
2018-01-13T07:22:10.409Z,5.56
2018-01-13T07:23:10.473Z,5.51
2018-01-13T07:24:10.437Z,5.32
2018-01-13T07:25:10.457Z,5.39
2018-01-13T07:26:10.466Z,5.25
2018-01-13T07:27:10.735Z,5.14
2018-01-13T07:28:10.498Z,5.17
2018-01-13T07:29:10.765Z,5.18
2018-01-13T07:30:10.771Z,5.2
2018-01-13T07:31:10.284Z,5.21
2018-01-13T07:32:10.800Z,5.25
2018-01-13T07:33:10.308Z,5.23
2018-01-13T07:34:10.578Z,5.15
2018-01-13T07:35:10.593Z,5.14
2018-01-13T07:36:10.353Z,5.14
2018-01-13T07:37:10.873Z,5.26
2018-01-13T07:38:10.708Z,5.05
2018-01-13T07:39:10.891Z,5.05
2018-01-13T07:40:10.408Z,5.2
2018-01-13T07:41:10.927Z,5.29
2018-01-13T07:42:10.693Z,5.36
2018-01-13T07:43:10.803Z,5.38
2018-01-13T07:44:10.467Z,5.36
2018-01-13T07:45:10.736Z,5.5
2018-01-13T07:46:10.498Z,5.51
2018-01-13T07:47:10.764Z,5.46
2018-01-13T07:48:10.782Z,5.41
2018-01-13T07:49:11.050Z,5.41
2018-01-13T07:50:10.806Z,5.43
2018-01-13T07:51:11.072Z,5.39
2018-01-13T07:52:11.092Z,5.48
2018-01-13T07:53:11.230Z,5.48
2018-01-13T07:54:11.115Z,5.57
2018-01-13T07:55:10.877Z,5.62
2018-01-13T07:56:11.139Z,5.66
2018-01-13T07:57:11.164Z,5.62
2018-01-13T07:58:10.919Z,5.69
2018-01-13T07:59:10.932Z,5.68
2018-01-13T08:00:10.956Z,5.75
2018-01-13T08:01:11.213Z,5.64
2018-01-13T08:02:11.237Z,5.64
2018-01-13T08:03:11.246Z,5.8
2018-01-13T08:04:10.760Z,5.73
2018-01-13T08:05:11.024Z,5.83
2018-01-13T08:06:11.286Z,5.9
2018-01-13T08:07:11.306Z,5.99
2018-01-13T08:08:11.118Z,5.98
2018-01-13T08:09:11.339Z,5.82
2018-01-13T08:10:10.842Z,5.91
2018-01-13T08:11:11.111Z,5.87
2018-01-13T08:12:11.376Z,5.69
2018-01-13T08:13:11.135Z,5.68
2018-01-13T08:14:11.404Z,5.72
2018-01-13T08:15:11.424Z,5.73
2018-01-13T08:16:11.180Z,5.72
2018-01-13T08:17:11.206Z,5.66
2018-01-13T08:18:11.210Z,5.69
2018-01-13T08:19:11.228Z,5.76
2018-01-13T08:20:11.495Z,5.93
2018-01-13T08:21:11.508Z,5.83
2018-01-13T08:22:11.521Z,5.91
2018-01-13T08:23:11.636Z,5.87
2018-01-13T08:24:11.297Z,5.97
2018-01-13T08:25:11.559Z,5.84
2018-01-13T08:26:11.583Z,6.01
2018-01-13T08:27:11.596Z,6.11
2018-01-13T08:28:11.403Z,5.87
2018-01-13T08:29:11.368Z,5.93
2018-01-13T08:30:11.387Z,6.01
2018-01-13T08:31:11.400Z,6.11
2018-01-13T08:32:11.411Z,6.08
2018-01-13T08:33:11.433Z,6.04
2018-01-13T08:34:11.191Z,5.91
2018-01-13T08:35:11.457Z,6.05
2018-01-13T08:36:11.474Z,5.79
2018-01-13T08:37:11.742Z,5.75
2018-01-13T08:38:11.555Z,5.93
2018-01-13T08:39:11.264Z,5.9
2018-01-13T08:40:11.529Z,5.89
2018-01-13T08:41:11.796Z,5.99
2018-01-13T08:42:11.563Z,5.99
2018-01-13T08:43:11.325Z,6.12
2018-01-13T08:44:11.591Z,6.07
2018-01-13T08:45:11.862Z,6.04
2018-01-13T08:46:11.870Z,5.94
2018-01-13T08:47:11.631Z,5.73
2018-01-13T08:48:11.395Z,5.72
2018-01-13T08:49:11.661Z,5.76
2018-01-13T08:50:11.677Z,5.86
2018-01-13T08:51:11.692Z,5.89
2018-01-13T08:52:11.710Z,5.86
2018-01-13T08:53:12.026Z,5.83
2018-01-13T08:54:11.987Z,5.72
2018-01-13T08:55:11.754Z,5.89
2018-01-13T08:56:11.514Z,5.73
2018-01-13T08:57:11.783Z,5.79
2018-01-13T08:58:11.552Z,5.89
2018-01-13T08:59:11.808Z,5.9
2018-01-13T09:00:12.096Z,5.94
2018-01-13T09:01:11.838Z,6.02
2018-01-13T09:02:11.858Z,5.94
2018-01-13T09:03:11.716Z,6.04
2018-01-13T09:04:11.887Z,6.07
2018-01-13T09:05:12.156Z,5.99
2018-01-13T09:06:12.163Z,6.01
2018-01-13T09:07:11.932Z,6.09
2018-01-13T09:08:12.237Z,6.07
2018-01-13T09:09:11.956Z,6.2
2018-01-13T09:10:12.224Z,6.08
2018-01-13T09:11:12.238Z,6.02
2018-01-13T09:12:11.998Z,6.05
2018-01-13T09:13:11.761Z,6.07
2018-01-13T09:14:12.032Z,6.09
2018-01-13T09:15:11.798Z,6.05
2018-01-13T09:16:12.309Z,6.11
2018-01-13T09:17:12.373Z,6.08
2018-01-13T09:18:12.093Z,6.08
2018-01-13T09:19:12.358Z,6.17
2018-01-13T09:20:12.120Z,6.24
2018-01-13T09:21:12.384Z,6.24
2018-01-13T09:22:12.187Z,6.35
2018-01-13T09:23:12.208Z,6.38
2018-01-13T09:24:12.176Z,6.42
2018-01-13T09:25:12.437Z,6.36
2018-01-13T09:26:12.203Z,6.36
2018-01-13T09:27:12.472Z,6.33
2018-01-13T09:28:12.234Z,6.33
2018-01-13T09:29:12.260Z,6.28
2018-01-13T09:30:12.262Z,6.36
2018-01-13T09:31:12.280Z,6.44
2018-01-13T09:32:12.294Z,6.39
2018-01-13T09:33:12.312Z,6.41
2018-01-13T09:34:12.072Z,6.44
2018-01-13T09:35:12.591Z,6.44
2018-01-13T09:36:12.099Z,6.45
2018-01-13T09:37:12.372Z,6.46
2018-01-13T09:38:12.680Z,6.52
2018-01-13T09:39:12.395Z,6.45
2018-01-13T09:40:12.412Z,6.45
2018-01-13T09:41:12.714Z,6.48
2018-01-13T09:42:12.698Z,6.48
2018-01-13T09:43:12.801Z,6.36
2018-01-13T09:44:12.467Z,6.28
2018-01-13T09:45:12.250Z,6.45
2018-01-13T09:46:12.247Z,6.44
2018-01-13T09:47:12.517Z,6.39
2018-01-13T09:48:12.532Z,6.19
2018-01-13T09:49:12.546Z,6.19
2018-01-13T09:50:12.559Z,6.24
2018-01-13T09:51:12.577Z,6.27
2018-01-13T09:52:12.344Z,6.38
2018-01-13T09:53:12.656Z,6.38
2018-01-13T09:54:12.625Z,6.49
2018-01-13T09:55:12.642Z,6.44
2018-01-13T09:56:12.902Z,6.26
2018-01-13T09:57:12.666Z,6.33
2018-01-13T09:58:12.680Z,6.24
2018-01-13T09:59:12.995Z,6.26
2018-01-13T10:00:12.965Z,6.33
2018-01-13T10:01:12.979Z,6.28
2018-01-13T10:02:12.742Z,6.26
2018-01-13T10:03:13.008Z,6.27
2018-01-13T10:04:12.772Z,6.31
2018-01-13T10:05:12.785Z,6.28
2018-01-13T10:06:12.799Z,6.33
2018-01-13T10:07:13.061Z,6.28
2018-01-13T10:08:12.582Z,6.11
2018-01-13T10:09:12.854Z,6.12
2018-01-13T10:10:12.863Z,6.22
2018-01-13T10:11:12.628Z,6.08
2018-01-13T10:12:12.911Z,6.07
2018-01-13T10:13:12.907Z,6.12
2018-01-13T10:14:13.182Z,6.22
2018-01-13T10:15:12.689Z,6.07
2018-01-13T10:16:12.949Z,6.11
2018-01-13T10:17:12.987Z,6.07
2018-01-13T10:18:12.984Z,6.14
2018-01-13T10:19:13.251Z,5.97
2018-01-13T10:20:13.011Z,6.07
2018-01-13T10:21:13.027Z,6.22
2018-01-13T10:22:12.790Z,6.26
2018-01-13T10:23:13.056Z,6.24
2018-01-13T10:24:13.073Z,6.2
2018-01-13T10:25:13.086Z,6.24
2018-01-13T10:26:13.352Z,6.44
2018-01-13T10:27:13.371Z,6.38
2018-01-13T10:28:13.399Z,6.28
2018-01-13T10:29:12.890Z,6.26
2018-01-13T10:30:12.910Z,6.12
2018-01-13T10:31:13.175Z,6.11
2018-01-13T10:32:13.215Z,6.09
2018-01-13T10:33:13.461Z,6.14
2018-01-13T10:34:12.967Z,6.38
2018-01-13T10:35:13.237Z,6.24
2018-01-13T10:36:13.504Z,6.2
2018-01-13T10:37:13.520Z,6.27
2018-01-13T10:38:13.533Z,6.35
2018-01-13T10:39:13.552Z,6.44
2018-01-13T10:40:13.387Z,6.45
2018-01-13T10:41:13.076Z,6.54
2018-01-13T10:42:13.090Z,6.42
2018-01-13T10:43:13.356Z,6.28
2018-01-13T10:44:13.622Z,6.19
2018-01-13T10:45:13.385Z,6.19
2018-01-13T10:46:13.403Z,6.28
2018-01-13T10:47:13.417Z,6.2
2018-01-13T10:48:13.190Z,6.07
2018-01-13T10:49:13.449Z,5.99
2018-01-13T10:50:13.711Z,6.05
2018-01-13T10:51:13.477Z,6.11
2018-01-13T10:52:13.493Z,6.09
2018-01-13T10:53:13.506Z,5.98
2018-01-13T10:54:13.522Z,5.89
2018-01-13T10:55:13.284Z,6.05
2018-01-13T10:56:13.551Z,5.97
2018-01-13T10:57:13.821Z,5.87
2018-01-13T10:58:13.585Z,5.93
2018-01-13T10:59:13.912Z,6.08
2018-01-13T11:00:13.613Z,6.16
2018-01-13T11:01:13.631Z,6.22
2018-01-13T11:02:13.392Z,6.27
2018-01-13T11:03:13.661Z,6.39
2018-01-13T11:04:13.921Z,6.49
2018-01-13T11:05:13.434Z,6.54
2018-01-13T11:06:13.700Z,6.42
2018-01-13T11:07:13.717Z,6.35
2018-01-13T11:08:13.479Z,6.26
2018-01-13T11:09:13.754Z,6.48
2018-01-13T11:10:13.760Z,6.64
2018-01-13T11:11:13.800Z,6.38
2018-01-13T11:12:13.888Z,6.31
2018-01-13T11:13:13.554Z,6.28
2018-01-13T11:14:14.072Z,6.22
2018-01-13T11:15:13.837Z,6.3
2018-01-13T11:16:13.848Z,6.26
2018-01-13T11:17:14.121Z,6.08
2018-01-13T11:18:13.879Z,6.24
2018-01-13T11:19:14.150Z,6.07
2018-01-13T11:20:13.908Z,6.07
2018-01-13T11:21:13.674Z,6.02
2018-01-13T11:22:13.685Z,6.01
2018-01-13T11:23:14.207Z,6.02
2018-01-13T11:24:13.974Z,5.93
2018-01-13T11:25:14.236Z,5.99
2018-01-13T11:26:13.747Z,6.07
2018-01-13T11:27:14.017Z,5.98
2018-01-13T11:28:14.025Z,5.66
2018-01-13T11:29:14.057Z,5.68
2018-01-13T11:30:14.064Z,5.5
2018-01-13T11:31:14.074Z,5.53
2018-01-13T11:32:13.835Z,5.62
2018-01-13T11:33:14.097Z,5.72
2018-01-13T11:34:14.366Z,5.69
2018-01-13T11:35:13.879Z,5.59
2018-01-13T11:36:14.393Z,5.56
2018-01-13T11:37:14.209Z,5.61
2018-01-13T11:38:13.928Z,5.62
2018-01-13T11:39:14.186Z,5.71
2018-01-13T11:40:14.469Z,5.69
2018-01-13T11:41:14.216Z,5.76
2018-01-13T11:42:13.980Z,5.79
2018-01-13T11:43:14.499Z,5.87
2018-01-13T11:44:14.010Z,5.83
2018-01-13T11:45:14.275Z,5.83
2018-01-13T11:46:14.296Z,5.71
2018-01-13T11:47:14.556Z,5.83
2018-01-13T11:48:14.575Z,5.94
2018-01-13T11:49:14.082Z,6.01
2018-01-13T11:50:14.603Z,6.09
2018-01-13T11:51:14.364Z,6.04
2018-01-13T11:52:14.638Z,6.16
2018-01-13T11:53:14.394Z,6.19
2018-01-13T11:54:14.504Z,6.31
2018-01-13T11:55:14.170Z,6.01
2018-01-13T11:56:14.436Z,6.01
2018-01-13T11:57:14.449Z,5.94
2018-01-13T11:58:14.463Z,5.69
2018-01-13T11:59:14.939Z,5.71
2018-01-13T12:00:14.495Z,5.66
2018-01-13T12:01:14.763Z,5.76
2018-01-13T12:02:14.524Z,5.65
2018-01-13T12:03:14.540Z,5.73
2018-01-13T12:04:14.402Z,5.73
2018-01-13T12:05:14.567Z,5.69
2018-01-13T12:06:14.581Z,5.89
2018-01-13T12:07:14.850Z,5.94
2018-01-13T12:08:14.613Z,5.93
2018-01-13T12:09:14.676Z,5.94
2018-01-13T12:10:14.895Z,5.87
2018-01-13T12:11:14.910Z,6.02
2018-01-13T12:12:14.673Z,6.04
2018-01-13T12:13:14.685Z,5.91
2018-01-13T12:14:14.700Z,5.86
2018-01-13T12:15:14.713Z,5.73
2018-01-13T12:16:14.728Z,5.69
2018-01-13T12:17:15.004Z,5.79
2018-01-13T12:18:15.008Z,5.8
2018-01-13T12:19:14.776Z,5.82
2018-01-13T12:20:14.789Z,5.64
2018-01-13T12:21:15.069Z,5.62
2018-01-13T12:22:15.065Z,5.66
2018-01-13T12:23:14.836Z,5.61
2018-01-13T12:24:15.100Z,5.65
2018-01-13T12:25:14.867Z,5.73
2018-01-13T12:26:14.924Z,5.69
2018-01-13T12:27:14.641Z,5.87
2018-01-13T12:28:14.903Z,5.89
2018-01-13T12:29:14.921Z,5.71
2018-01-13T12:30:14.936Z,5.71
2018-01-13T12:31:15.202Z,5.87
2018-01-13T12:32:15.226Z,5.99
2018-01-13T12:33:14.984Z,5.83
2018-01-13T12:34:15.248Z,5.89
2018-01-13T12:35:15.268Z,5.97
2018-01-13T12:36:15.275Z,5.99
2018-01-13T12:37:15.299Z,5.66
2018-01-13T12:38:15.051Z,5.61
2018-01-13T12:39:15.065Z,5.66
2018-01-13T12:40:15.339Z,5.75
2018-01-13T12:41:15.406Z,5.8
2018-01-13T12:42:15.362Z,5.72
2018-01-13T12:43:15.130Z,5.72
2018-01-13T12:44:14.890Z,5.72
2018-01-13T12:45:15.153Z,5.57
2018-01-13T12:46:15.169Z,5.61
2018-01-13T12:47:15.182Z,5.66
2018-01-13T12:48:14.946Z,5.72
2018-01-13T12:49:15.465Z,5.75
2018-01-13T12:50:15.243Z,5.73
2018-01-13T12:51:15.345Z,5.91
2018-01-13T12:52:15.510Z,5.93
2018-01-13T12:53:15.273Z,5.97
2018-01-13T12:54:15.292Z,5.82
2018-01-13T12:55:15.559Z,5.76
2018-01-13T12:56:15.617Z,5.83
2018-01-13T12:57:15.078Z,5.91
2018-01-13T12:58:15.594Z,5.97
2018-01-13T12:59:15.361Z,6.02
2018-01-13T13:00:15.376Z,5.94
2018-01-13T13:01:15.393Z,6.09
2018-01-13T13:02:15.656Z,5.84
2018-01-13T13:03:15.422Z,5.71
2018-01-13T13:04:15.438Z,5.76
2018-01-13T13:05:15.197Z,5.47
2018-01-13T13:06:15.461Z,5.53
2018-01-13T13:07:15.483Z,5.39
2018-01-13T13:08:15.495Z,5.54
2018-01-13T13:09:15.765Z,5.41
2018-01-13T13:10:15.523Z,5.28
2018-01-13T13:11:15.588Z,5.36
2018-01-13T13:12:15.557Z,5.38
2018-01-13T13:13:15.816Z,5.44
2018-01-13T13:14:15.577Z,5.44
2018-01-13T13:15:15.597Z,5.41
2018-01-13T13:16:15.606Z,5.48
2018-01-13T13:17:15.620Z,5.59
2018-01-13T13:18:15.884Z,5.5
2018-01-13T13:19:16.031Z,5.65
2018-01-13T13:20:15.919Z,5.62